Niantic, CT (06357)

8:10 PM EDT on July 23, 2016 (GMT -0400)
Brook Rd | | Change Station

Elev 52 ft 41.33 °N, 72.21 °W | Updated 1 minute ago

Clear
Clear
83.7 °F
Feels Like 81 °F
N
0.0
Wind Variable Wind from WSW

Today
High -- | Low -- °F
--% Chance of Precip.
Yesterday
High -- | Low -- °F
Precip. -- in
Pressure 29.78 in
Visibility 10.0 miles
Clouds Clear
Heat Index 81 °F
Dew Point Not available.
Humidity Not available.
Rainfall 0.00 in
Snow Depth Not available.
5:35 AM 8:14 PM
Waning Gibbous, 81% visible
METAR KGON 232356Z 26003KT 10SM CLR 27/19 A2978 RMK AO2 SLP085 T02670194 10328 20267 53009
Pressure 29.78 in
Visibility 10.0 miles
Clouds Clear
Heat Index 81 °F
Dew Point Not available.
Humidity Not available.
Rainfall 0.00 in
Snow Depth Not available.
5:35 AM 8:14 PM
Waning Gibbous, 81% visible
METAR KGON 232356Z 26003KT 10SM CLR 27/19 A2978 RMK AO2 SLP085 T02670194 10328 20267 53009

10-Day Weather Forecast

Almanac

Astronomy

Jul. 23, 2016 Rise Set
Actual Time
Civil Twilight
Nautical Twilight
Astronomical Twilight
Moon
Length of Visible Light
Length of Day
Tomorrow will be .
, % of the Moon is Illuminated

Today's Extremes

State Highs State Lows

Community

WunderPhotos

Upload Photos

1,926,979 photos uploaded!

WunderBlog® & News

Nearby

Air Quality

  Air Quality AQ Index Pollutant
Not available.

Snow Depth

Station Depth Elevation

Earthquake Activity

City Distance Mag. Time & Date
Minimum magnitude displayed is 2.5.

Coastal Water Temperatures

Place Temperature

Stations

Nearby Weather Stations

Station Location Temp. Windchill Dew Point Humidity Wind Precip. Elev Updated Type
                   

Watches & Warnings

There are currently no watches in effect.